Main page
METAR-TAF:

METAR-TAF

Airports :

Khajuraho Airport

Khajuraho, India

latitude: 24-49-02N, longitude: 79-55-07E, elevation: 222 m

Current weather observation

The report was made 13 hours and 24 minutes ago, at 12:00 UTC
Wind 6 kt from the North/Northeast
Temperature 41°C
Humidity 25%
Pressure 1005 hPa
Visibility: 6000 m

METAR: VEKO 231200Z 02006KT 6000 NSC 41/17 Q1005

Time: 06:54 (01:24 UTC)

Forecast

The report was made 2 hours and 24 minutes ago, at 23:00 UTC
Forecast valid from 24 at 00 UTC to 24 at 09 UTC
Wind 5 kt from the West/Southwest
Visibility: 3000 m
Few clouds at a height of 2000 ft
haze
Becoming
from 24 at 04 UTC to 24 at 06 UTC
Wind 5 kt from the West
Visibility: 4000 m
haze
Becoming
from 24 at 06 UTC to 24 at 08 UTC
Wind 5 kt from the Northwest
Visibility: 5000 m
haze

TAF: VEKO 232300Z 2400/2409 24005KT 3000 HZ FEW020 BECMG 2404/2406 28005KT 4000 HZ NSC BECMG 2406/2408 31005KT 5000 HZ

Weather observations and forecasts of more than 4000 airports (METAR and TAF reports).

The available stations are represented by yellow and red dots on the map.

Hover mouse over dot to see the name of the station.

Then click to see weather observations and forecasts.

To change the map : click on the green buttons with a black cross to zoom in, on the green button with a dash to zoom out, or on the green arrows for adjacent maps.


METAR-TAF: